createdAt,value
2023-05-09T00:02:02.844Z,91.65
2023-05-09T00:04:30.143Z,91.70
2023-05-09T00:06:56.590Z,91.29
2023-05-09T00:09:22.969Z,91.33
2023-05-09T00:11:49.586Z,91.59
2023-05-09T00:14:18.256Z,91.75
2023-05-09T00:16:45.424Z,92.01
2023-05-09T00:19:12.968Z,91.70
2023-05-09T00:21:39.454Z,91.59
2023-05-09T00:24:06.277Z,91.42
2023-05-09T00:26:32.738Z,91.37
2023-05-09T00:28:59.732Z,91.53
2023-05-09T00:31:26.286Z,91.32
2023-05-09T00:33:53.992Z,91.46
2023-05-09T00:36:20.475Z,90.97
2023-05-09T00:38:47.268Z,91.32
2023-05-09T00:41:13.736Z,91.29
2023-05-09T00:43:40.185Z,91.40
2023-05-09T00:46:06.931Z,91.33
2023-05-09T00:48:33.503Z,90.95
2023-05-09T00:51:00.010Z,90.96
2023-05-09T00:53:26.655Z,91.28
2023-05-09T00:55:55.656Z,90.66
2023-05-09T00:58:22.249Z,90.46
2023-05-09T01:00:48.780Z,90.74
2023-05-09T01:03:15.737Z,90.84
2023-05-09T01:06:11.069Z,91.07
2023-05-09T01:09:02.050Z,90.81
2023-05-09T01:11:34.446Z,91.00
2023-05-09T01:14:12.974Z,90.83
2023-05-09T01:16:43.622Z,90.83
2023-05-09T01:19:38.314Z,90.42
2023-05-09T01:22:08.957Z,90.08
2023-05-09T01:24:50.635Z,90.29
2023-05-09T01:27:50.716Z,90.29
2023-05-09T01:30:18.676Z,90.18
2023-05-09T01:32:49.697Z,90.85
2023-05-09T01:35:17.300Z,90.82
2023-05-09T01:37:48.947Z,90.61
2023-05-09T01:40:17.523Z,91.06
2023-05-09T01:42:48.524Z,90.89
2023-05-09T01:45:17.626Z,91.28
2023-05-09T01:47:44.745Z,91.35
2023-05-09T01:50:12.618Z,91.85
2023-05-09T01:52:41.497Z,92.01
2023-05-09T01:55:09.924Z,92.19
2023-05-09T01:57:38.400Z,92.50
2023-05-09T02:00:07.895Z,91.85
2023-05-09T02:02:40.312Z,92.24
2023-05-09T02:05:09.873Z,92.77
2023-05-09T02:07:37.128Z,92.93
2023-05-09T02:10:04.861Z,92.99
2023-05-09T02:12:31.457Z,93.35
2023-05-09T02:14:57.995Z,93.47
2023-05-09T02:17:24.613Z,93.68
2023-05-09T02:19:51.063Z,93.90
2023-05-09T02:22:17.826Z,94.03
2023-05-09T02:24:45.504Z,93.91
2023-05-09T02:27:12.892Z,94.42
2023-05-09T02:29:44.370Z,94.48
2023-05-09T02:32:16.548Z,93.87
2023-05-09T02:34:44.752Z,94.26
2023-05-09T02:37:11.524Z,94.05
2023-05-09T02:39:38.097Z,94.01
2023-05-09T02:42:10.377Z,94.16
2023-05-09T02:44:37.360Z,93.76
2023-05-09T02:47:06.828Z,93.79
2023-05-09T02:49:34.067Z,94.18
2023-05-09T02:52:02.796Z,93.88
2023-05-09T02:54:29.648Z,94.34
2023-05-09T02:56:56.326Z,93.89
2023-05-09T02:59:22.782Z,94.35
2023-05-09T03:01:49.630Z,94.09
2023-05-09T03:04:16.555Z,94.27
2023-05-09T03:06:43.222Z,94.39
2023-05-09T03:09:10.125Z,94.27
2023-05-09T03:11:37.136Z,94.54
2023-05-09T03:14:04.200Z,94.47
2023-05-09T03:16:31.102Z,94.42
2023-05-09T03:18:58.201Z,94.82
2023-05-09T03:21:24.701Z,94.65
2023-05-09T03:23:51.276Z,95.11
2023-05-09T03:26:17.835Z,95.13
2023-05-09T03:28:44.715Z,95.19
2023-05-09T03:31:11.236Z,95.16
2023-05-09T03:33:37.689Z,94.44
2023-05-09T03:36:05.268Z,94.62
2023-05-09T03:38:31.913Z,94.05
2023-05-09T03:40:58.768Z,93.87
2023-05-09T03:43:26.291Z,94.13
2023-05-09T03:45:52.764Z,93.60
2023-05-09T03:48:19.219Z,93.41
2023-05-09T03:50:50.099Z,93.22
2023-05-09T03:53:16.678Z,93.66
2023-05-09T03:55:45.529Z,93.17
2023-05-09T03:58:13.563Z,93.55
2023-05-09T04:00:42.223Z,92.86
2023-05-09T04:03:14.537Z,93.37
2023-05-09T04:05:45.662Z,92.55
2023-05-09T04:08:20.812Z,92.57
2023-05-09T04:10:47.506Z,92.59
2023-05-09T04:13:14.076Z,92.24
2023-05-09T04:15:41.034Z,92.51
2023-05-09T04:18:07.731Z,92.32
2023-05-09T04:20:34.421Z,92.62
2023-05-09T04:23:01.452Z,92.35
2023-05-09T04:25:29.398Z,91.66
2023-05-09T04:27:56.607Z,92.02
2023-05-09T04:30:23.776Z,92.10
2023-05-09T04:32:50.567Z,91.73
2023-05-09T04:35:19.772Z,91.83
2023-05-09T04:37:48.488Z,92.29
2023-05-09T04:40:14.989Z,91.82
2023-05-09T04:42:51.891Z,92.17
2023-05-09T04:45:21.844Z,91.65
2023-05-09T04:47:48.361Z,91.54
2023-05-09T04:50:14.808Z,92.18
2023-05-09T04:52:41.243Z,92.12
2023-05-09T04:55:08.242Z,92.18
2023-05-09T04:57:38.962Z,92.47
2023-05-09T05:00:11.339Z,92.22
2023-05-09T05:02:38.204Z,92.12
2023-05-09T05:05:13.333Z,92.22
2023-05-09T05:07:42.634Z,91.97
2023-05-09T05:10:11.312Z,91.72
2023-05-09T05:12:40.032Z,91.95
2023-05-09T05:15:09.795Z,91.79
2023-05-09T05:17:37.305Z,91.67
2023-05-09T05:20:06.639Z,91.77
2023-05-09T05:22:33.519Z,91.27
2023-05-09T05:25:00.042Z,91.27
2023-05-09T05:27:26.901Z,91.64
2023-05-09T05:29:53.593Z,90.77
2023-05-09T05:32:20.616Z,90.77
2023-05-09T05:34:47.585Z,91.10
2023-05-09T05:37:14.377Z,90.47
2023-05-09T05:39:41.757Z,90.43
2023-05-09T05:42:08.635Z,90.03
2023-05-09T05:44:35.429Z,89.59
2023-05-09T05:47:02.011Z,89.33
2023-05-09T05:49:28.498Z,89.22
2023-05-09T05:51:54.976Z,89.31
2023-05-09T05:54:22.196Z,88.69
2023-05-09T05:56:48.976Z,88.11
2023-05-09T05:59:16.274Z,87.94
2023-05-09T06:01:43.328Z,87.71
2023-05-09T06:04:10.258Z,87.31
2023-05-09T06:06:37.013Z,87.09
2023-05-09T06:09:03.473Z,86.14
2023-05-09T06:11:30.022Z,85.73
2023-05-09T06:13:56.505Z,85.47
2023-05-09T06:16:23.686Z,85.34
2023-05-09T06:18:52.662Z,85.01
2023-05-09T06:21:21.220Z,84.23
2023-05-09T06:24:04.258Z,83.42
2023-05-09T06:26:32.795Z,83.05
2023-05-09T06:28:59.289Z,82.89
2023-05-09T06:31:26.188Z,82.52
2023-05-09T06:33:53.078Z,81.53
2023-05-09T06:36:19.671Z,81.46
2023-05-09T06:38:46.273Z,81.41
2023-05-09T06:41:12.737Z,80.94
2023-05-09T06:43:39.176Z,81.04
2023-05-09T06:46:05.773Z,80.92
2023-05-09T06:48:32.278Z,80.58
2023-05-09T06:50:58.929Z,80.90
2023-05-09T06:53:25.394Z,80.96
2023-05-09T06:55:51.803Z,80.76
2023-05-09T06:58:18.264Z,80.55
2023-05-09T07:00:44.781Z,80.69
2023-05-09T07:03:11.692Z,80.20
2023-05-09T07:05:38.261Z,79.96
2023-05-09T07:08:04.704Z,80.43
2023-05-09T07:10:31.363Z,80.32
2023-05-09T07:12:58.054Z,79.48
2023-05-09T07:15:37.184Z,79.58
2023-05-09T07:18:07.482Z,79.96
2023-05-09T07:20:33.918Z,79.72
2023-05-09T07:23:00.529Z,79.42
2023-05-09T07:25:26.991Z,79.51
2023-05-09T07:27:53.460Z,79.45
2023-05-09T07:30:19.968Z,79.50
2023-05-09T07:32:46.650Z,79.27
2023-05-09T07:35:13.356Z,78.36
2023-05-09T07:37:40.620Z,78.69
2023-05-09T07:40:07.718Z,78.20
2023-05-09T07:42:34.245Z,78.14
2023-05-09T07:45:00.785Z,78.18
2023-05-09T07:47:27.297Z,77.94
2023-05-09T07:49:53.752Z,77.60
2023-05-09T07:52:20.167Z,77.38
2023-05-09T07:54:46.615Z,77.33
2023-05-09T07:57:13.090Z,77.20
2023-05-09T07:59:39.524Z,77.01
2023-05-09T08:02:06.445Z,77.39
2023-05-09T08:04:33.008Z,76.89
2023-05-09T08:06:59.628Z,76.98
2023-05-09T08:09:26.569Z,76.47
2023-05-09T08:11:53.050Z,76.58
2023-05-09T08:14:19.496Z,76.13
2023-05-09T08:16:45.962Z,76.01
2023-05-09T08:19:12.412Z,75.62
2023-05-09T08:21:38.837Z,75.72
2023-05-09T08:24:07.892Z,75.65
2023-05-09T08:26:35.209Z,75.35
2023-05-09T08:29:01.983Z,75.41
2023-05-09T08:31:28.761Z,75.34
2023-05-09T08:33:55.326Z,75.07
2023-05-09T08:36:21.762Z,74.91
2023-05-09T08:38:49.449Z,74.60
2023-05-09T08:41:16.325Z,74.25
2023-05-09T08:43:43.640Z,74.23
2023-05-09T08:46:11.634Z,73.86
2023-05-09T08:48:38.771Z,73.57
2023-05-09T08:51:06.890Z,73.17
2023-05-09T08:53:34.277Z,73.03
2023-05-09T08:56:03.626Z,72.73
2023-05-09T08:58:31.428Z,72.29
2023-05-09T09:00:59.022Z,71.65
2023-05-09T09:03:26.291Z,71.87
2023-05-09T09:05:54.774Z,71.57
2023-05-09T09:08:22.894Z,70.71
2023-05-09T09:10:49.771Z,70.79
2023-05-09T09:13:17.860Z,70.75
2023-05-09T09:15:46.494Z,70.59
2023-05-09T09:18:18.093Z,70.31
2023-05-09T09:20:59.733Z,70.32
2023-05-09T09:23:27.225Z,70.34
2023-05-09T09:26:03.016Z,69.79
2023-05-09T09:28:29.673Z,69.26
2023-05-09T09:30:56.314Z,68.97
2023-05-09T09:33:24.188Z,68.64
2023-05-09T09:35:52.226Z,68.47
2023-05-09T09:38:20.636Z,67.88
2023-05-09T09:40:57.688Z,67.83
2023-05-09T09:43:31.326Z,67.61
2023-05-09T09:46:01.716Z,67.11
2023-05-09T09:48:33.617Z,66.75
2023-05-09T09:51:11.205Z,66.54
2023-05-09T09:53:41.736Z,66.51
2023-05-09T09:56:08.345Z,66.52
2023-05-09T09:58:34.989Z,66.60
2023-05-09T10:01:20.790Z,66.06
2023-05-09T10:03:47.937Z,65.92
2023-05-09T10:06:16.449Z,65.53
2023-05-09T10:08:46.750Z,64.51
2023-05-09T10:11:13.748Z,64.40
2023-05-09T10:13:40.521Z,64.42
2023-05-09T10:16:09.019Z,64.03
2023-05-09T10:18:36.524Z,63.04
2023-05-09T10:21:05.527Z,62.42
2023-05-09T10:23:37.016Z,62.39
2023-05-09T10:26:28.975Z,62.25
2023-05-09T10:28:57.384Z,61.86
2023-05-09T10:31:27.894Z,62.11
2023-05-09T10:33:58.691Z,61.90
2023-05-09T10:36:25.363Z,61.77
2023-05-09T10:38:54.943Z,61.37
2023-05-09T10:41:22.214Z,60.91
2023-05-09T10:43:48.821Z,60.85
2023-05-09T10:46:16.284Z,61.43
2023-05-09T10:48:43.589Z,62.13
2023-05-09T10:51:10.649Z,62.10
2023-05-09T10:53:43.551Z,61.91
2023-05-09T10:56:22.857Z,62.10
2023-05-09T10:58:49.296Z,62.27
2023-05-09T11:01:36.844Z,62.23
2023-05-09T11:04:10.959Z,62.34
2023-05-09T11:06:53.998Z,62.44
2023-05-09T11:09:32.851Z,61.76
2023-05-09T11:12:05.817Z,63.38
2023-05-09T11:14:44.709Z,62.50
2023-05-09T11:17:12.634Z,61.90
2023-05-09T11:19:47.854Z,61.14
2023-05-09T11:22:21.236Z,58.36
2023-05-09T11:24:49.539Z,58.83
2023-05-09T11:27:16.783Z,59.67
2023-05-09T11:29:45.652Z,59.56
2023-05-09T11:32:14.557Z,59.23
2023-05-09T11:34:44.437Z,59.47
2023-05-09T11:37:17.514Z,60.27
2023-05-09T11:39:58.824Z,61.16
2023-05-09T11:42:29.431Z,57.52
2023-05-09T11:44:57.643Z,57.60
2023-05-09T11:47:25.113Z,58.73
2023-05-09T11:49:52.092Z,60.11
2023-05-09T11:52:19.937Z,58.42
2023-05-09T11:54:46.398Z,57.41
2023-05-09T11:57:17.274Z,58.49
2023-05-09T11:59:45.358Z,58.74
2023-05-09T12:02:12.033Z,59.11
2023-05-09T12:04:38.890Z,58.27
2023-05-09T12:07:05.681Z,58.19
2023-05-09T12:09:34.408Z,57.73
2023-05-09T12:12:01.332Z,57.93
2023-05-09T12:14:32.402Z,55.61
2023-05-09T12:16:58.832Z,56.10
2023-05-09T12:19:26.167Z,57.38
2023-05-09T12:21:59.124Z,54.07
2023-05-09T12:24:26.971Z,55.28
2023-05-09T12:26:57.707Z,55.63
2023-05-09T12:29:25.292Z,56.36
2023-05-09T12:31:55.383Z,56.54
2023-05-09T12:34:22.033Z,56.52
2023-05-09T12:36:50.853Z,55.70
2023-05-09T12:39:22.912Z,55.37
2023-05-09T12:42:00.925Z,55.45
2023-05-09T12:44:29.725Z,55.39
2023-05-09T12:47:01.470Z,55.74
2023-05-09T12:49:29.285Z,55.54
2023-05-09T12:51:58.094Z,55.11
2023-05-09T12:54:28.976Z,54.81
2023-05-09T12:56:56.916Z,55.05
2023-05-09T12:59:24.796Z,54.57
2023-05-09T13:02:01.864Z,55.27
2023-05-09T13:04:28.970Z,54.71
2023-05-09T13:06:57.692Z,54.48
2023-05-09T13:09:26.199Z,54.52
2023-05-09T13:11:53.657Z,54.15
2023-05-09T13:14:21.819Z,53.68
2023-05-09T13:16:48.514Z,53.24
2023-05-09T13:19:15.003Z,52.86
2023-05-09T13:21:41.447Z,53.24
2023-05-09T13:24:08.114Z,53.92
2023-05-09T13:26:34.631Z,53.73
2023-05-09T13:29:01.123Z,53.57
2023-05-09T13:31:27.752Z,52.52
2023-05-09T13:33:54.193Z,53.03
2023-05-09T13:36:20.999Z,53.22
2023-05-09T13:38:47.686Z,52.42
2023-05-09T13:41:19.955Z,52.46
2023-05-09T13:43:46.771Z,52.89
2023-05-09T13:46:13.552Z,51.96
2023-05-09T13:48:40.215Z,51.20
2023-05-09T13:51:07.836Z,51.45
2023-05-09T13:53:35.344Z,49.52
2023-05-09T13:56:03.300Z,48.92
2023-05-09T13:58:29.745Z,47.84
2023-05-09T14:00:56.177Z,47.54
2023-05-09T14:03:22.697Z,49.41
2023-05-09T14:05:49.431Z,49.60
2023-05-09T14:08:16.613Z,50.35
2023-05-09T14:10:44.467Z,50.06
2023-05-09T14:13:12.433Z,49.75
2023-05-09T14:15:40.180Z,49.05
2023-05-09T14:18:06.780Z,48.82
2023-05-09T14:20:35.869Z,49.12
2023-05-09T14:23:02.302Z,49.79
2023-05-09T14:25:29.324Z,49.84
2023-05-09T14:27:55.754Z,47.99
2023-05-09T14:30:22.995Z,47.55
2023-05-09T14:32:49.477Z,48.37
2023-05-09T14:35:16.181Z,47.87
2023-05-09T14:37:42.805Z,48.10
2023-05-09T14:40:09.740Z,49.12
2023-05-09T14:42:36.990Z,49.83
2023-05-09T14:45:04.724Z,50.01
2023-05-09T14:47:31.353Z,50.30
2023-05-09T14:49:57.906Z,50.14
2023-05-09T14:52:24.402Z,50.26
2023-05-09T14:54:50.865Z,50.89
2023-05-09T14:57:17.345Z,51.00
2023-05-09T14:59:43.873Z,50.87
2023-05-09T15:02:10.332Z,51.10
2023-05-09T15:04:36.808Z,51.54
2023-05-09T15:07:03.239Z,51.19
2023-05-09T15:09:29.686Z,52.20
2023-05-09T15:11:56.402Z,52.40
2023-05-09T15:14:22.823Z,52.87
2023-05-09T15:16:51.529Z,53.11
2023-05-09T15:19:18.218Z,52.65
2023-05-09T15:21:44.971Z,52.98
2023-05-09T15:24:12.065Z,53.14
2023-05-09T15:26:38.506Z,53.31
2023-05-09T15:29:04.996Z,53.83
2023-05-09T15:31:32.760Z,53.48
2023-05-09T15:33:59.792Z,53.10
2023-05-09T15:36:29.944Z,52.90
2023-05-09T15:38:56.371Z,52.79
2023-05-09T15:41:23.167Z,53.64
2023-05-09T15:43:49.811Z,53.75
2023-05-09T15:46:16.982Z,53.32
2023-05-09T15:48:43.549Z,53.60
2023-05-09T15:51:10.103Z,53.94
2023-05-09T15:53:36.735Z,53.10
2023-05-09T15:56:03.720Z,52.65
2023-05-09T15:58:30.637Z,52.58
2023-05-09T16:00:57.093Z,52.33
2023-05-09T16:03:24.813Z,52.04
2023-05-09T16:05:52.165Z,52.12
2023-05-09T16:08:18.880Z,52.48
2023-05-09T16:10:48.900Z,52.60
2023-05-09T16:13:17.782Z,53.06
2023-05-09T16:15:45.362Z,53.04
2023-05-09T16:18:12.133Z,53.93
2023-05-09T16:20:38.679Z,54.52
2023-05-09T16:23:05.162Z,55.11
2023-05-09T16:25:33.355Z,55.38
2023-05-09T16:28:01.003Z,55.83
2023-05-09T16:30:27.465Z,56.07
2023-05-09T16:32:54.020Z,56.39
2023-05-09T16:35:20.518Z,56.98
2023-05-09T16:37:47.229Z,57.30
2023-05-09T16:40:14.928Z,57.61
2023-05-09T16:42:42.927Z,58.00
2023-05-09T16:45:09.937Z,58.74
2023-05-09T16:47:36.824Z,58.99
2023-05-09T16:50:04.620Z,59.79
2023-05-09T16:52:31.231Z,60.83
2023-05-09T16:54:59.293Z,61.37
2023-05-09T16:57:26.023Z,61.72
2023-05-09T16:59:53.397Z,62.35
2023-05-09T17:02:19.939Z,62.40
2023-05-09T17:04:46.662Z,62.48
2023-05-09T17:07:14.411Z,63.00
2023-05-09T17:09:41.097Z,63.16
2023-05-09T17:12:07.552Z,63.22
2023-05-09T17:14:34.020Z,63.03
2023-05-09T17:17:00.585Z,62.99
2023-05-09T17:19:27.091Z,62.78
2023-05-09T17:21:55.988Z,62.91
2023-05-09T17:24:22.453Z,62.91
2023-05-09T17:26:50.125Z,63.20
2023-05-09T17:29:16.610Z,63.42
2023-05-09T17:31:43.066Z,63.77
2023-05-09T17:34:09.573Z,64.34
2023-05-09T17:36:36.208Z,64.53
2023-05-09T17:39:02.658Z,64.83
2023-05-09T17:41:29.107Z,64.91
2023-05-09T17:43:57.362Z,65.09
2023-05-09T17:46:24.585Z,65.63
2023-05-09T17:48:51.309Z,65.60
2023-05-09T17:51:17.901Z,65.84
2023-05-09T17:53:44.322Z,65.71
2023-05-09T17:56:10.779Z,65.70
2023-05-09T17:58:37.215Z,65.90
2023-05-09T18:01:03.753Z,65.89
2023-05-09T18:03:32.177Z,66.13
2023-05-09T18:06:00.227Z,66.36
2023-05-09T18:08:26.758Z,66.36
2023-05-09T18:10:56.326Z,66.61
2023-05-09T18:13:23.151Z,66.68
2023-05-09T18:15:49.798Z,66.78
2023-05-09T18:18:16.302Z,67.00
2023-05-09T18:20:42.823Z,67.17
2023-05-09T18:23:09.313Z,67.17
2023-05-09T18:25:35.804Z,67.16
2023-05-09T18:28:02.444Z,67.96
2023-05-09T18:30:29.029Z,68.63
2023-05-09T18:33:00.081Z,68.86
2023-05-09T18:35:26.537Z,67.31
2023-05-09T18:37:53.382Z,67.49
2023-05-09T18:40:20.017Z,69.43
2023-05-09T18:42:46.586Z,74.03
2023-05-09T18:45:13.243Z,75.78
2023-05-09T18:47:39.767Z,77.49
2023-05-09T18:50:07.249Z,78.64
2023-05-09T18:52:34.376Z,80.66
2023-05-09T18:55:00.901Z,82.21
2023-05-09T18:57:28.276Z,83.32
2023-05-09T18:59:55.017Z,84.42
2023-05-09T19:02:22.346Z,85.46
2023-05-09T19:04:50.456Z,86.14
2023-05-09T19:07:17.205Z,86.88
2023-05-09T19:09:43.720Z,87.52
2023-05-09T19:12:10.227Z,87.92
2023-05-09T19:14:37.876Z,88.38
2023-05-09T19:17:07.762Z,88.93
2023-05-09T19:19:34.503Z,89.27
2023-05-09T19:22:01.724Z,90.24
2023-05-09T19:24:28.245Z,90.53
2023-05-09T19:26:54.747Z,90.98
2023-05-09T19:29:21.207Z,91.37
2023-05-09T19:31:47.709Z,91.90
2023-05-09T19:34:14.236Z,92.15
2023-05-09T19:36:40.755Z,92.30
2023-05-09T19:39:08.834Z,92.37
2023-05-09T19:41:35.427Z,92.86
2023-05-09T19:44:02.165Z,93.13
2023-05-09T19:46:28.710Z,93.34
2023-05-09T19:48:55.245Z,93.33
2023-05-09T19:51:21.752Z,93.47
2023-05-09T19:53:48.235Z,93.32
2023-05-09T19:56:14.708Z,93.36
2023-05-09T19:58:41.375Z,93.45
2023-05-09T20:01:08.044Z,93.50
2023-05-09T20:03:38.523Z,93.48
2023-05-09T20:06:05.758Z,93.64
2023-05-09T20:08:32.240Z,93.58
2023-05-09T20:11:00.078Z,93.55
2023-05-09T20:13:27.434Z,93.93
2023-05-09T20:15:54.013Z,94.19
2023-05-09T20:18:20.539Z,94.41
2023-05-09T20:20:47.001Z,94.46
2023-05-09T20:23:13.548Z,94.38
2023-05-09T20:25:40.286Z,94.63
2023-05-09T20:28:06.824Z,94.75
2023-05-09T20:30:33.386Z,95.10
2023-05-09T20:33:01.069Z,95.27
2023-05-09T20:35:27.865Z,95.28
2023-05-09T20:37:54.613Z,95.89
2023-05-09T20:40:21.110Z,96.10
2023-05-09T20:42:47.560Z,96.42
2023-05-09T20:45:14.074Z,96.60
2023-05-09T20:47:40.627Z,96.58
2023-05-09T20:50:07.736Z,96.72
2023-05-09T20:52:34.182Z,96.82
2023-05-09T20:55:01.223Z,96.63
2023-05-09T20:57:27.781Z,96.88
2023-05-09T20:59:54.239Z,96.96
2023-05-09T21:02:20.843Z,96.74
2023-05-09T21:04:47.311Z,97.05
2023-05-09T21:07:13.814Z,96.99
2023-05-09T21:09:41.097Z,96.90
2023-05-09T21:12:09.273Z,96.73
2023-05-09T21:14:37.497Z,96.97
2023-05-09T21:17:04.010Z,97.06
2023-05-09T21:19:30.587Z,96.90
2023-05-09T21:21:58.300Z,96.58
2023-05-09T21:24:24.792Z,96.53
2023-05-09T21:26:51.320Z,96.68
2023-05-09T21:29:17.733Z,96.61
2023-05-09T21:31:44.169Z,96.43
2023-05-09T21:34:10.764Z,96.29
2023-05-09T21:36:38.292Z,96.09
2023-05-09T21:39:08.830Z,95.82
2023-05-09T21:41:36.304Z,95.81
2023-05-09T21:44:03.158Z,95.79
2023-05-09T21:46:33.248Z,95.98
2023-05-09T21:49:00.753Z,95.49
2023-05-09T21:51:28.374Z,95.58
2023-05-09T21:53:54.862Z,95.71
2023-05-09T21:56:22.852Z,95.61
2023-05-09T21:58:49.325Z,95.32
2023-05-09T22:01:19.391Z,95.68
2023-05-09T22:03:46.026Z,95.73
2023-05-09T22:06:13.407Z,95.72
2023-05-09T22:08:39.849Z,95.89
2023-05-09T22:11:06.242Z,95.99
2023-05-09T22:13:32.840Z,96.05
2023-05-09T22:15:59.284Z,96.29
2023-05-09T22:18:27.088Z,96.19
2023-05-09T22:20:53.554Z,95.93
2023-05-09T22:23:19.953Z,95.68
2023-05-09T22:25:46.403Z,95.71
2023-05-09T22:28:12.850Z,95.91
2023-05-09T22:30:39.307Z,95.73
2023-05-09T22:33:05.818Z,95.79
2023-05-09T22:35:32.323Z,95.78
2023-05-09T22:37:58.787Z,95.88
2023-05-09T22:40:26.348Z,95.82
2023-05-09T22:42:53.442Z,96.19
2023-05-09T22:45:20.692Z,96.41
2023-05-09T22:47:47.353Z,97.01
2023-05-09T22:50:13.974Z,97.24
2023-05-09T22:52:40.638Z,97.34
2023-05-09T22:55:07.461Z,97.50
2023-05-09T22:57:33.935Z,97.69
2023-05-09T23:00:00.315Z,97.85
2023-05-09T23:02:26.980Z,97.52
2023-05-09T23:04:53.531Z,97.70
2023-05-09T23:07:20.087Z,97.54
2023-05-09T23:09:46.608Z,97.74
2023-05-09T23:12:13.152Z,98.05
2023-05-09T23:14:39.750Z,97.87
2023-05-09T23:17:06.239Z,98.12
2023-05-09T23:19:33.191Z,97.92
2023-05-09T23:21:59.683Z,98.02
2023-05-09T23:24:26.155Z,98.29
2023-05-09T23:26:53.664Z,98.11
2023-05-09T23:29:20.109Z,98.28
2023-05-09T23:31:46.972Z,98.22
2023-05-09T23:34:13.760Z,98.64
2023-05-09T23:36:40.166Z,98.50
2023-05-09T23:39:06.633Z,98.35
2023-05-09T23:41:33.267Z,98.27
2023-05-09T23:44:01.909Z,98.45
2023-05-09T23:46:28.768Z,98.04
2023-05-09T23:48:56.218Z,98.25
2023-05-09T23:51:22.756Z,96.90
2023-05-09T23:53:49.364Z,97.29
2023-05-09T23:56:16.063Z,97.23
2023-05-09T23:58:43.102Z,97.28
